Pattaya, Thailand

4:08 AM ICT on August 30, 2016 (GMT +0700)
Pattaya | | Change Station

Elev 141 ft 12.93 °N, 100.91 °E | Updated 7 seconds ago

Light Rain
Light Rain
77.2 °F
Feels Like 79 °F
N
0.0
Wind Variable Wind from ESE
Gusts 0.0 mph

Today
High -- | Low -- °F
--% Chance of Precip.
Yesterday
High -- | Low -- °F
Precip. -- in
Pressure 29.74 in
Visibility 3.7 miles
Clouds Few 1800 ft
Scattered Clouds 3500 ft
Mostly Cloudy 10000 ft
Heat Index 79 °F
Dew Point 74 °F
Humidity 91%
Rainfall 0.02 in
Snow Depth Not available.
6:05 AM 6:28 PM
Waning Crescent, 7% visible
METAR VTBU 292100Z 02004KT 6000 -RA FEW018CB SCT035 BKN100 25/23 Q1007 NOSIG
Pressure 29.74 in
Visibility 3.7 miles
Clouds Few 1800 ft
Scattered Clouds 3500 ft
Mostly Cloudy 10000 ft
Heat Index 79 °F
Dew Point 74 °F
Humidity 91%
Rainfall 0.02 in
Snow Depth Not available.
6:05 AM 6:28 PM
Waning Crescent, 7% visible
METAR VTBU 292100Z 02004KT 6000 -RA FEW018CB SCT035 BKN100 25/23 Q1007 NOSIG

10-Day Weather Forecast

No radar image for this location.
×

Almanac

Astronomy

Aug. 30, 2016 Rise Set
Actual Time
Civil Twilight
Nautical Twilight
Astronomical Twilight
Moon
Length of Visible Light
Length of Day
Tomorrow will be .
, % of the Moon is Illuminated

Today's Extremes

Country Highs Country Lows

Community

WunderPhotos

Upload Photos

1,935,676 photos uploaded!

WunderBlog® & News

Nearby

Air Quality

  Air Quality AQ Index Pollutant
Not available.

Snow Depth

Station Depth Elevation

Earthquake Activity

City Distance Mag. Time & Date
Minimum magnitude displayed is 2.5.

Coastal Water Temperatures

Place Temperature

Stations

Nearby Weather Stations

Station Location Temp. Windchill Dew Point Humidity Wind Precip. Elev Updated Type